createdAt,value
2023-01-22T00:03:18.672Z,-1.29
2023-01-22T00:08:20.310Z,0.22
2023-01-22T00:13:23.915Z,-1.35
2023-01-22T00:18:26.272Z,-1.69
2023-01-22T00:23:27.966Z,-1.14
2023-01-22T00:28:30.389Z,-1.83
2023-01-22T00:33:32.579Z,-1.04
2023-01-22T00:38:34.931Z,-1.56
2023-01-22T00:43:40.713Z,-1.39
2023-01-22T00:48:42.763Z,-0.68
2023-01-22T00:53:45.014Z,-1.93
2023-01-22T00:58:46.836Z,-0.90
2023-01-22T01:03:48.487Z,-0.98
2023-01-22T01:08:50.834Z,-0.64
2023-01-22T01:13:53.479Z,-1.53
2023-01-22T01:19:02.252Z,-1.07
2023-01-22T01:24:04.095Z,-0.31
2023-01-22T01:29:09.667Z,-1.34
2023-01-22T01:34:11.307Z,-0.78
2023-01-22T01:39:12.870Z,1.73
2023-01-22T01:44:23.057Z,0.21
2023-01-22T01:49:33.413Z,-0.20
2023-01-22T01:54:36.282Z,0.75
2023-01-22T01:59:39.273Z,1.18
2023-01-22T02:04:40.949Z,1.38
2023-01-22T02:09:42.593Z,0.59
2023-01-22T02:14:45.948Z,0.21
2023-01-22T02:19:48.276Z,-1.64
2023-01-22T02:24:50.514Z,-0.86
2023-01-22T02:29:52.226Z,-1.23
2023-01-22T02:34:53.853Z,-0.46
2023-01-22T02:39:55.503Z,-1.16
2023-01-22T02:44:57.167Z,-0.49
2023-01-22T02:49:58.823Z,-1.57
2023-01-22T02:55:00.549Z,-0.19
2023-01-22T03:00:02.263Z,-1.03
2023-01-22T03:05:04.109Z,-0.65
2023-01-22T03:10:06.108Z,-1.15
2023-01-22T03:15:27.340Z,-0.63
2023-01-22T03:20:47.796Z,-0.66
2023-01-22T03:25:56.396Z,-0.21
2023-01-22T03:30:58.230Z,0.33
2023-01-22T03:36:02.112Z,-0.52
2023-01-22T03:41:10.649Z,-0.89
2023-01-22T03:46:15.193Z,-1.19
2023-01-22T03:51:17.024Z,-1.22
2023-01-22T03:56:22.121Z,0.58
2023-01-22T04:01:26.721Z,-0.60
2023-01-22T04:06:30.513Z,-0.89
2023-01-22T04:11:32.139Z,-1.06
2023-01-22T04:16:33.967Z,-1.76
2023-01-22T04:21:35.602Z,-0.20
2023-01-22T04:26:37.229Z,-0.62
2023-01-22T04:31:38.904Z,-0.28
2023-01-22T04:36:40.607Z,-1.47
2023-01-22T04:41:42.381Z,-1.56
2023-01-22T04:46:44.002Z,-0.01
2023-01-22T04:51:45.669Z,-0.85
2023-01-22T04:56:47.462Z,-1.48
2023-01-22T05:01:51.074Z,-0.83
2023-01-22T05:06:52.741Z,-0.64
2023-01-22T05:11:54.403Z,-1.31
2023-01-22T05:16:56.011Z,-1.23
2023-01-22T05:21:57.612Z,-0.63
2023-01-22T05:26:59.299Z,-1.40
2023-01-22T05:32:01.022Z,-0.42
2023-01-22T05:37:02.632Z,-0.83
2023-01-22T05:42:04.519Z,-0.14
2023-01-22T05:47:06.225Z,-0.53
2023-01-22T05:52:10.825Z,-0.17
2023-01-22T05:57:12.969Z,-1.58
2023-01-22T06:02:14.633Z,-0.73
2023-01-22T06:07:16.257Z,0.26
2023-01-22T06:12:18.621Z,-0.49
2023-01-22T06:17:20.689Z,-0.72
2023-01-22T06:22:22.306Z,-0.47
2023-01-22T06:27:23.892Z,-0.49
2023-01-22T06:32:25.557Z,-1.14
2023-01-22T06:37:27.254Z,-1.40
2023-01-22T06:42:28.897Z,-1.77
2023-01-22T06:47:30.537Z,0.17
2023-01-22T06:52:32.116Z,-0.31
2023-01-22T06:57:33.748Z,-0.97
2023-01-22T07:02:35.359Z,0.39
2023-01-22T07:07:37.021Z,-0.19
2023-01-22T07:12:38.798Z,-0.66
2023-01-22T07:17:40.465Z,0.18
2023-01-22T07:22:42.174Z,0.13
2023-01-22T07:27:44.372Z,-0.53
2023-01-22T07:32:45.960Z,0.24
2023-01-22T07:37:55.224Z,-0.23
2023-01-22T07:42:56.969Z,-1.07
2023-01-22T07:47:59.768Z,-0.48
2023-01-22T07:53:01.604Z,0.44
2023-01-22T07:58:06.088Z,0.21
2023-01-22T08:03:10.583Z,-0.39
2023-01-22T08:08:22.574Z,-0.68
2023-01-22T08:13:24.308Z,-0.20
2023-01-22T08:18:26.108Z,-0.13
2023-01-22T08:23:28.285Z,0.04
2023-01-22T08:28:31.382Z,-0.75
2023-01-22T08:33:33.776Z,0.14
2023-01-22T08:38:35.401Z,0.70
2023-01-22T08:43:37.016Z,0.07
2023-01-22T08:48:39.751Z,-0.63
2023-01-22T08:53:41.436Z,-0.23
2023-01-22T08:58:43.178Z,0.16
2023-01-22T09:03:45.097Z,1.94
2023-01-22T09:08:46.758Z,-0.84
2023-01-22T09:13:48.430Z,-0.07
2023-01-22T09:18:50.099Z,0.10
2023-01-22T09:23:52.270Z,-0.71
2023-01-22T09:28:53.901Z,-0.51
2023-01-22T09:33:55.811Z,0.53
2023-01-22T09:38:57.521Z,0.16
2023-01-22T09:44:05.226Z,1.27
2023-01-22T09:49:21.629Z,0.11
2023-01-22T09:54:23.837Z,0.15
2023-01-22T09:59:35.748Z,0.03
2023-01-22T10:04:43.994Z,0.36
2023-01-22T10:09:52.521Z,1.45
2023-01-22T10:14:56.019Z,0.47
2023-01-22T10:20:04.735Z,0.17
2023-01-22T10:25:15.200Z,1.37
2023-01-22T10:30:25.997Z,0.01
2023-01-22T10:35:30.766Z,-0.17
2023-01-22T10:40:38.294Z,0.16
2023-01-22T10:45:54.358Z,1.06
2023-01-22T10:51:15.450Z,-0.13
2023-01-22T10:56:39.069Z,1.46
2023-01-22T11:06:32.983Z,0.27
2023-01-22T11:11:45.350Z,-0.99
2023-01-22T11:16:51.445Z,0.03
2023-01-22T11:21:56.262Z,-0.02
2023-01-22T11:27:14.598Z,-0.50
2023-01-22T11:32:31.393Z,-0.03
2023-01-22T11:37:48.153Z,0.27
2023-01-22T11:43:28.108Z,0.03
2023-01-22T11:48:49.131Z,0.68
2023-01-22T11:53:53.429Z,-0.51
2023-01-22T11:59:13.235Z,-0.62
2023-01-22T12:04:38.293Z,-0.02
2023-01-22T12:09:55.026Z,-0.46
2023-01-22T12:15:11.524Z,0.65
2023-01-22T12:20:38.085Z,0.55
2023-01-22T12:26:18.929Z,0.23
2023-01-22T12:31:33.311Z,-0.34
2023-01-22T12:36:35.521Z,-0.02
2023-01-22T12:41:49.056Z,0.59
2023-01-22T12:47:02.219Z,-0.28
2023-01-22T12:52:03.993Z,0.49
2023-01-22T12:57:14.399Z,0.07
2023-01-22T13:02:35.588Z,0.24
2023-01-22T13:07:40.988Z,-0.05
2023-01-22T13:12:47.979Z,0.16
2023-01-22T13:18:06.395Z,0.27
2023-01-22T13:23:13.799Z,0.76
2023-01-22T13:28:19.343Z,0.89
2023-01-22T13:33:20.920Z,1.00
2023-01-22T13:38:26.511Z,1.51
2023-01-22T13:43:28.561Z,1.46
2023-01-22T13:48:30.680Z,1.52
2023-01-22T13:53:39.499Z,0.69
2023-01-22T13:58:48.862Z,1.39
2023-01-22T14:03:59.228Z,1.05
2023-01-22T14:09:00.900Z,0.83
2023-01-22T14:14:03.975Z,0.22
2023-01-22T14:19:05.541Z,0.52
2023-01-22T14:24:07.683Z,0.98
2023-01-22T14:29:09.530Z,0.90
2023-01-22T14:34:12.483Z,0.72
2023-01-22T14:39:14.358Z,1.14
2023-01-22T14:44:16.423Z,0.49
2023-01-22T14:49:18.614Z,0.77
2023-01-22T14:54:20.950Z,0.07
2023-01-22T14:59:22.570Z,0.48
2023-01-22T15:04:24.152Z,0.62
2023-01-22T15:09:25.816Z,0.23
2023-01-22T15:14:27.626Z,0.98
2023-01-22T15:19:36.307Z,1.02
2023-01-22T15:24:43.848Z,0.41
2023-01-22T15:29:46.290Z,0.17
2023-01-22T15:34:47.935Z,-0.03
2023-01-22T15:39:49.967Z,-0.06
2023-01-22T15:44:51.619Z,-0.06
2023-01-22T15:49:53.232Z,-0.24
2023-01-22T15:54:55.151Z,0.07
2023-01-22T15:59:56.790Z,0.92
2023-01-22T16:04:58.356Z,0.03
2023-01-22T16:10:00.026Z,1.01
2023-01-22T16:15:01.620Z,0.79
2023-01-22T16:20:05.326Z,0.01
2023-01-22T16:25:07.220Z,0.81
2023-01-22T16:30:09.500Z,-0.23
2023-01-22T16:35:11.271Z,1.38
2023-01-22T16:40:13.531Z,0.20
2023-01-22T16:45:15.112Z,1.24
2023-01-22T16:50:17.404Z,1.34
2023-01-22T16:55:19.313Z,0.84
2023-01-22T17:00:21.278Z,2.32
2023-01-22T17:05:22.965Z,1.85
2023-01-22T17:10:24.738Z,2.03
2023-01-22T17:15:26.405Z,0.81
2023-01-22T17:20:28.173Z,1.00
2023-01-22T17:25:29.819Z,1.16
2023-01-22T17:30:31.426Z,1.11
2023-01-22T17:35:33.113Z,0.47
2023-01-22T17:40:37.392Z,1.21
2023-01-22T17:45:40.075Z,0.51
2023-01-22T17:50:41.673Z,0.38
2023-01-22T17:55:43.315Z,0.28
2023-01-22T18:00:45.439Z,0.39
2023-01-22T18:05:47.510Z,0.43
2023-01-22T18:10:49.240Z,0.91
2023-01-22T18:15:51.368Z,0.71
2023-01-22T18:20:53.002Z,0.15
2023-01-22T18:25:57.954Z,0.57
2023-01-22T18:31:08.451Z,0.68
2023-01-22T18:36:13.762Z,0.48
2023-01-22T18:41:18.948Z,1.18
2023-01-22T18:46:22.156Z,0.68
2023-01-22T18:51:24.586Z,-0.22
2023-01-22T18:56:26.453Z,0.09
2023-01-22T19:01:31.814Z,0.45
2023-01-22T19:06:37.114Z,0.76
2023-01-22T19:11:43.523Z,2.66
2023-01-22T19:16:48.331Z,1.04
2023-01-22T19:21:54.972Z,0.41
2023-01-22T19:26:58.001Z,1.08
2023-01-22T19:31:59.697Z,1.41
2023-01-22T19:37:02.555Z,0.90
2023-01-22T19:42:06.754Z,1.88
2023-01-22T19:47:09.141Z,1.72
2023-01-22T19:52:13.221Z,0.33
2023-01-22T19:57:15.413Z,0.90
2023-01-22T20:02:20.779Z,-0.01
2023-01-22T20:07:22.729Z,0.01
2023-01-22T20:12:24.441Z,-0.15
2023-01-22T20:17:26.034Z,1.40
2023-01-22T20:22:30.547Z,0.46
2023-01-22T20:27:32.308Z,0.61
2023-01-22T20:32:34.215Z,-0.01
2023-01-22T20:37:35.888Z,0.85
2023-01-22T20:42:38.452Z,-0.36
2023-01-22T20:47:40.203Z,-0.23
2023-01-22T20:52:41.802Z,0.40
2023-01-22T20:57:43.429Z,0.04
2023-01-22T21:02:45.073Z,0.17
2023-01-22T21:07:46.983Z,0.48
2023-01-22T21:12:48.540Z,-0.31
2023-01-22T21:17:50.276Z,-0.10
2023-01-22T21:22:51.871Z,1.01
2023-01-22T21:27:53.445Z,-0.10
2023-01-22T21:32:55.669Z,0.73
2023-01-22T21:37:57.322Z,0.12
2023-01-22T21:43:17.282Z,-0.03
2023-01-22T21:48:19.003Z,1.13
2023-01-22T21:53:20.606Z,-0.02
2023-01-22T21:58:22.338Z,0.80
2023-01-22T22:03:23.904Z,0.89
2023-01-22T22:08:25.693Z,0.44
2023-01-22T22:13:27.378Z,0.68
2023-01-22T22:18:29.251Z,1.53
2023-01-22T22:23:31.619Z,0.36
2023-01-22T22:28:34.973Z,0.25
2023-01-22T22:33:36.869Z,1.04
2023-01-22T22:38:38.545Z,1.49
2023-01-22T22:43:44.403Z,1.79
2023-01-22T22:48:46.858Z,2.32
2023-01-22T22:53:51.914Z,2.07
2023-01-22T22:58:53.689Z,2.47
2023-01-22T23:03:55.433Z,3.31
2023-01-22T23:08:58.561Z,1.32
2023-01-22T23:14:01.560Z,1.31
2023-01-22T23:19:08.996Z,1.93
2023-01-22T23:24:12.776Z,0.90
2023-01-22T23:29:17.677Z,1.48
2023-01-22T23:34:21.253Z,0.42
2023-01-22T23:39:23.097Z,1.12
2023-01-22T23:44:24.825Z,0.07
2023-01-22T23:49:26.505Z,0.89
2023-01-22T23:54:28.431Z,0.90
2023-01-22T23:59:30.646Z,1.10
